This is the latest recevied weather packets stored in our database for station/object VE1AIC-4. If no packets are shown the sender has not sent any weather packets the latest 10 day(s).
| Time | Temp. | Humidity | Pressure | Rain* | Wind** | Luminosity | Snow |
|---|---|---|---|---|---|---|---|
| 1777953627 | 6.67° C | 87% | 1004.8 hPa | 0 mm | - | 0 W/m² | - |
| 1777950627 | 7.22° C | 84% | 1004.1 hPa | 0 mm | - | 0 W/m² | - |
| 1777947094 | 7.78° C | 83% | 1003.3 hPa | 0 mm | - | 0 W/m² | - |
| 1777946445 | 7.78° C | 82% | 1003.2 hPa | 0 mm | - | 0 W/m² | - |
| 1777939832 | 8.33° C | 76% | 1001.5 hPa | 0 mm | - | 0 W/m² | - |
| 1777937445 | 9.44° C | 72% | 1000.7 hPa | 0 mm | - | 2 W/m² | - |
| 1777936825 | 8.89° C | 71% | 1000.6 hPa | 0 mm | - | 3 W/m² | - |
| 1777932021 | 11.11° C | 57% | 999.8 hPa | 0 mm | - | 62 W/m² | - |
| 1777929077 | 11.67° C | 57% | 999.5 hPa | 0 mm | - | 124 W/m² | - |
| 1777923651 | 13.89° C | 51% | 998.7 hPa | 0 mm | - | 453 W/m² | - |
| 1777923030 | 13.89° C | 50% | 998.6 hPa | 0 mm | - | 474 W/m² | - |
| 1777921884 | 12.78° C | 55% | 998.5 hPa | 0 mm | - | 523 W/m² | - |
| 1777920023 | 13.89° C | 50% | 998.3 hPa | 0 mm | - | 585 W/m² | - |
| 1777915872 | 12.22° C | 60% | 998.3 hPa | 0 mm | - | 695 W/m² | - |
| 1777914042 | 12.78° C | 57% | 997.9 hPa | 0 mm | - | 733 W/m² | - |
| 1777912863 | 12.22° C | 60% | 997.8 hPa | 0 mm | - | 721 W/m² | - |
| 1777911057 | 12.22° C | 64% | 997.6 hPa | 0 mm | - | 796 W/m² | - |
| 1777910465 | 11.67° C | 65% | 997.4 hPa | 0 mm | - | 749 W/m² | - |
| 1777903223 | 7.78° C | 82% | 996.1 hPa | 0 mm | - | 442 W/m² | - |
| 1777899099 | 6.67° C | 86% | 994.8 hPa | 0 mm | - | 259 W/m² | - |
| 1777897238 | 5.56° C | 92% | 994.2 hPa | 0.25 mm | - | 327 W/m² | - |
| 1777896031 | 5° C | 94% | 993.9 hPa | 0.51 mm | - | 155 W/m² | - |
| 1777891876 | 3.89° C | 96% | 992.2 hPa | 1.27 mm | - | 40 W/m² | - |
| 1777885830 | 2.78° C | 96% | 989.3 hPa | 2.79 mm | - | 2 W/m² | - |
| 1777884032 | 2.78° C | 96% | 988.5 hPa | 3.56 mm | - | 0 W/m² | - |
* Rain latest hour (hover to see other rain measurements)
** Current wind speed in m/s (hover to see current wind gust speed)